createdAt,value
2023-05-07T00:02:15.398Z,16.51
2023-05-07T00:07:18.246Z,16.54
2023-05-07T00:12:21.072Z,16.58
2023-05-07T00:17:25.380Z,16.51
2023-05-07T00:22:28.214Z,16.39
2023-05-07T00:27:31.054Z,16.39
2023-05-07T00:32:35.300Z,16.31
2023-05-07T00:37:38.170Z,16.28
2023-05-07T00:42:40.968Z,16.18
2023-05-07T00:47:45.324Z,16.13
2023-05-07T00:52:48.295Z,16.17
2023-05-07T00:57:51.756Z,16.12
2023-05-07T01:02:56.113Z,16.10
2023-05-07T01:07:59.578Z,16.02
2023-05-07T01:13:03.175Z,15.99
2023-05-07T01:18:08.030Z,15.98
2023-05-07T01:23:14.077Z,16.04
2023-05-07T01:28:16.902Z,16.02
2023-05-07T01:33:23.418Z,15.98
2023-05-07T01:38:28.335Z,15.85
2023-05-07T01:43:31.877Z,15.78
2023-05-07T01:48:34.971Z,15.84
2023-05-07T01:53:39.588Z,15.83
2023-05-07T01:58:42.560Z,15.90
2023-05-07T02:03:46.067Z,15.88
2023-05-07T02:08:58.098Z,15.85
2023-05-07T02:14:01.215Z,15.92
2023-05-07T02:19:04.164Z,15.89
2023-05-07T02:24:08.821Z,15.87
2023-05-07T02:29:11.668Z,15.82
2023-05-07T02:34:15.719Z,15.79
2023-05-07T02:39:20.005Z,15.78
2023-05-07T02:44:23.044Z,15.79
2023-05-07T02:49:27.726Z,15.83
2023-05-07T02:54:32.530Z,15.86
2023-05-07T02:59:35.497Z,15.87
2023-05-07T03:04:38.619Z,15.88
2023-05-07T03:09:43.039Z,15.90
2023-05-07T03:14:46.084Z,15.91
2023-05-07T03:19:49.020Z,15.90
2023-05-07T03:24:53.368Z,15.89
2023-05-07T03:29:56.190Z,15.87
2023-05-07T03:34:59.193Z,15.87
2023-05-07T03:40:05.027Z,15.86
2023-05-07T03:45:16.418Z,15.85
2023-05-07T03:50:24.278Z,15.84
2023-05-07T03:55:28.616Z,15.82
2023-05-07T04:00:39.068Z,15.80
2023-05-07T04:05:50.582Z,15.78
2023-05-07T04:10:58.317Z,15.77
2023-05-07T04:16:04.287Z,15.72
2023-05-07T04:21:08.192Z,15.71
2023-05-07T04:26:16.260Z,15.74
2023-05-07T04:31:20.999Z,15.75
2023-05-07T04:36:28.800Z,15.78
2023-05-07T04:41:39.194Z,15.75
2023-05-07T04:46:43.777Z,15.78
2023-05-07T04:51:47.172Z,15.80
2023-05-07T04:56:54.314Z,15.84
2023-05-07T05:01:57.382Z,15.94
2023-05-07T05:07:00.585Z,16.03
2023-05-07T05:12:08.180Z,16.12
2023-05-07T05:17:12.814Z,16.23
2023-05-07T05:22:16.221Z,16.28
2023-05-07T05:27:20.530Z,16.33
2023-05-07T05:32:23.545Z,16.29
2023-05-07T05:37:31.208Z,16.45
2023-05-07T05:42:36.825Z,16.55
2023-05-07T05:47:40.135Z,16.51
2023-05-07T05:52:43.937Z,16.42
2023-05-07T05:57:48.971Z,16.49
2023-05-07T06:02:52.436Z,16.38
2023-05-07T06:07:59.912Z,16.46
2023-05-07T06:13:08.436Z,16.49
2023-05-07T06:18:13.609Z,16.56
2023-05-07T06:23:18.182Z,16.61
2023-05-07T06:28:22.707Z,16.67
2023-05-07T06:33:26.473Z,16.87
2023-05-07T06:38:29.363Z,16.85
2023-05-07T06:43:33.617Z,16.79
2023-05-07T06:48:59.307Z,16.91
2023-05-07T06:54:05.379Z,17.02
2023-05-07T06:59:10.757Z,17.06
2023-05-07T07:04:16.407Z,17.07
2023-05-07T07:09:24.070Z,17.17
2023-05-07T07:14:29.022Z,17.40
2023-05-07T07:19:32.024Z,17.67
2023-05-07T07:24:35.730Z,17.92
2023-05-07T07:29:43.400Z,17.64
2023-05-07T07:34:46.427Z,18.55
2023-05-07T07:39:49.881Z,19.35
2023-05-07T07:44:54.634Z,19.61
2023-05-07T07:49:59.680Z,20.29
2023-05-07T07:55:02.631Z,20.23
2023-05-07T08:00:09.191Z,20.13
2023-05-07T08:05:19.615Z,19.38
2023-05-07T08:10:23.983Z,18.89
2023-05-07T08:15:34.094Z,18.98
2023-05-07T08:20:40.374Z,19.16
2023-05-07T08:25:45.645Z,19.33
2023-05-07T08:30:50.579Z,19.62
2023-05-07T08:35:53.658Z,19.74
2023-05-07T08:40:57.069Z,20.30
2023-05-07T08:46:03.523Z,20.52
2023-05-07T08:51:14.398Z,21.16
2023-05-07T08:56:20.357Z,20.88
2023-05-07T09:01:26.823Z,20.85
2023-05-07T09:06:31.380Z,21.18
2023-05-07T09:11:34.548Z,20.95
2023-05-07T09:16:39.982Z,21.14
2023-05-07T09:21:43.189Z,21.50
2023-05-07T09:26:47.295Z,21.62
2023-05-07T09:31:53.011Z,22.10
2023-05-07T09:36:56.102Z,21.87
2023-05-07T09:41:59.513Z,21.52
2023-05-07T09:47:10.803Z,21.22
2023-05-07T09:52:19.493Z,21.19
2023-05-07T09:57:26.228Z,21.46
2023-05-07T10:02:37.461Z,21.79
2023-05-07T10:07:40.777Z,21.31
2023-05-07T10:12:45.940Z,21.15
2023-05-07T10:17:56.071Z,20.97
2023-05-07T10:23:00.841Z,21.10
2023-05-07T10:28:13.159Z,21.22
2023-05-07T10:33:24.843Z,21.82
2023-05-07T10:38:29.179Z,21.69
2023-05-07T10:43:43.862Z,21.54
2023-05-07T10:49:13.223Z,21.73
2023-05-07T10:54:48.934Z,21.95
2023-05-07T10:59:54.710Z,21.95
2023-05-07T11:05:23.233Z,22.54
2023-05-07T11:10:53.711Z,22.64
2023-05-07T11:16:29.114Z,22.98
2023-05-07T11:21:44.844Z,22.77
2023-05-07T11:26:57.455Z,22.80
2023-05-07T11:32:04.268Z,22.54
2023-05-07T11:37:19.019Z,22.37
2023-05-07T11:42:30.600Z,22.49
2023-05-07T11:47:34.310Z,22.46
2023-05-07T11:52:40.137Z,22.33
2023-05-07T11:57:44.763Z,22.57
2023-05-07T12:02:47.751Z,22.62
2023-05-07T12:07:58.242Z,22.59
2023-05-07T12:13:01.241Z,22.51
2023-05-07T12:18:04.300Z,22.81
2023-05-07T12:23:09.220Z,22.68
2023-05-07T12:28:15.168Z,22.75
2023-05-07T12:33:18.743Z,22.95
2023-05-07T12:38:23.018Z,22.71
2023-05-07T12:43:27.989Z,22.72
2023-05-07T12:48:30.880Z,21.96
2023-05-07T12:53:35.266Z,21.55
2023-05-07T12:58:38.689Z,21.20
2023-05-07T13:03:41.803Z,20.48
2023-05-07T13:08:46.340Z,20.42
2023-05-07T13:13:49.223Z,20.31
2023-05-07T13:18:52.051Z,20.01
2023-05-07T13:23:56.320Z,19.57
2023-05-07T13:28:59.276Z,19.21
2023-05-07T13:34:02.157Z,19.00
2023-05-07T13:39:07.392Z,19.11
2023-05-07T13:44:10.225Z,19.21
2023-05-07T13:49:13.919Z,19.14
2023-05-07T13:54:18.137Z,19.13
2023-05-07T13:59:20.998Z,19.28
2023-05-07T14:04:24.050Z,19.35
2023-05-07T14:09:28.532Z,19.46
2023-05-07T14:14:31.385Z,19.71
2023-05-07T14:19:34.219Z,19.87
2023-05-07T14:24:39.846Z,20.01
2023-05-07T14:29:43.575Z,20.28
2023-05-07T14:34:46.478Z,20.30
2023-05-07T14:39:51.224Z,20.20
2023-05-07T14:44:54.271Z,20.06
2023-05-07T14:49:58.372Z,20.05
2023-05-07T14:55:02.566Z,20.03
2023-05-07T15:00:06.027Z,20.04
2023-05-07T15:05:09.642Z,20.08
2023-05-07T15:10:14.070Z,20.04
2023-05-07T15:15:17.042Z,19.94
2023-05-07T15:20:20.317Z,19.95
2023-05-07T15:25:24.885Z,19.96
2023-05-07T15:30:28.246Z,19.98
2023-05-07T15:35:31.295Z,19.99
2023-05-07T15:40:36.376Z,20.00
2023-05-07T15:45:40.943Z,20.00
2023-05-07T15:50:43.910Z,19.96
2023-05-07T15:55:49.522Z,19.93
2023-05-07T16:00:53.398Z,20.02
2023-05-07T16:05:57.776Z,19.99
2023-05-07T16:11:02.166Z,19.97
2023-05-07T16:16:06.572Z,19.99
2023-05-07T16:21:09.475Z,19.94
2023-05-07T16:26:14.578Z,20.00
2023-05-07T16:31:17.412Z,20.03
2023-05-07T16:36:20.272Z,20.03
2023-05-07T16:41:24.601Z,20.05
2023-05-07T16:46:27.551Z,20.03
2023-05-07T16:51:30.433Z,19.99
2023-05-07T16:56:34.723Z,19.92
2023-05-07T17:01:37.828Z,19.89
2023-05-07T17:06:40.843Z,19.93
2023-05-07T17:11:45.093Z,19.92
2023-05-07T17:16:47.919Z,20.03
2023-05-07T17:21:50.821Z,20.11
2023-05-07T17:26:55.155Z,20.20
2023-05-07T17:32:00.254Z,20.24
2023-05-07T17:37:03.772Z,20.33
2023-05-07T17:42:07.958Z,20.02
2023-05-07T17:47:10.923Z,19.90
2023-05-07T17:52:13.822Z,19.76
2023-05-07T17:57:17.947Z,19.55
2023-05-07T18:02:20.853Z,19.40
2023-05-07T18:07:23.697Z,19.32
2023-05-07T18:12:27.994Z,19.19
2023-05-07T18:17:30.948Z,19.02
2023-05-07T18:22:33.988Z,18.89
2023-05-07T18:27:38.329Z,18.78
2023-05-07T18:32:41.187Z,18.67
2023-05-07T18:37:44.173Z,18.58
2023-05-07T18:42:48.428Z,18.42
2023-05-07T18:47:51.302Z,18.40
2023-05-07T18:52:54.292Z,18.36
2023-05-07T18:57:58.512Z,18.30
2023-05-07T19:03:01.399Z,18.29
2023-05-07T19:08:04.294Z,18.29
2023-05-07T19:13:08.573Z,18.22
2023-05-07T19:18:11.393Z,18.21
2023-05-07T19:23:14.191Z,18.19
2023-05-07T19:28:19.156Z,18.15
2023-05-07T19:33:23.810Z,18.08
2023-05-07T19:38:27.038Z,17.97
2023-05-07T19:43:35.961Z,17.89
2023-05-07T19:48:38.801Z,17.82
2023-05-07T19:53:41.673Z,17.74
2023-05-07T19:58:45.914Z,17.63
2023-05-07T20:03:48.918Z,17.59
2023-05-07T20:08:51.791Z,17.50
2023-05-07T20:13:55.938Z,17.43
2023-05-07T20:18:58.785Z,17.44
2023-05-07T20:24:01.530Z,17.42
2023-05-07T20:29:05.924Z,17.37
2023-05-07T20:34:08.775Z,17.34
2023-05-07T20:39:14.588Z,17.39
2023-05-07T20:44:19.042Z,17.37
2023-05-07T20:49:23.081Z,17.29
2023-05-07T20:54:28.087Z,17.26
2023-05-07T20:59:34.828Z,17.23
2023-05-07T21:04:37.742Z,17.22
2023-05-07T21:09:40.718Z,17.15
2023-05-07T21:14:44.980Z,17.12
2023-05-07T21:19:48.322Z,17.04
2023-05-07T21:24:51.093Z,16.99
2023-05-07T21:29:58.640Z,16.88
2023-05-07T21:35:01.545Z,16.76
2023-05-07T21:40:04.810Z,16.66
2023-05-07T21:45:10.013Z,16.57
2023-05-07T21:50:13.444Z,16.59
2023-05-07T21:55:16.477Z,16.57
2023-05-07T22:00:22.247Z,16.51
2023-05-07T22:05:25.133Z,16.43
2023-05-07T22:10:28.062Z,16.43
2023-05-07T22:15:35.329Z,16.42
2023-05-07T22:20:40.258Z,16.37
2023-05-07T22:25:43.228Z,16.29
2023-05-07T22:30:47.459Z,16.30
2023-05-07T22:35:50.276Z,16.21
2023-05-07T22:40:53.182Z,16.20
2023-05-07T22:46:01.251Z,16.17
2023-05-07T22:51:04.555Z,16.09
2023-05-07T22:56:08.534Z,16.04
2023-05-07T23:01:17.118Z,15.94
2023-05-07T23:06:20.055Z,15.85
2023-05-07T23:11:22.963Z,15.81
2023-05-07T23:16:28.771Z,15.72
2023-05-07T23:21:31.904Z,15.66
2023-05-07T23:26:34.709Z,15.63
2023-05-07T23:31:38.912Z,15.56
2023-05-07T23:36:41.858Z,15.52
2023-05-07T23:41:44.601Z,15.50
2023-05-07T23:46:48.777Z,15.41
2023-05-07T23:51:51.624Z,15.44
2023-05-07T23:56:54.514Z,15.42
